Lynn, MA (01902)

1:18 PM EDT on August 30, 2016 (GMT -0400)
WC1H | | Change Station

Elev 85 ft 42.47 °N, 70.95 °W | Updated 3 seconds ago

Partly Cloudy
Partly Cloudy
75.0 °F
Feels Like 78 °F
N
2.0
Wind Variable Wind from SSE
Gusts 6.0 mph

Today
High -- | Low -- °F
--% Chance of Precip.
Yesterday
High -- | Low -- °F
Precip. -- in
Pressure 30.09 in
Visibility 10.0 miles
Clouds Few 5500 ft
Heat Index 78 °F
Dew Point 56 °F
Humidity 52%
Rainfall 0.00 in
Snow Depth Not available.
6:07 AM 7:20 PM
Waning Crescent, 3% visible
METAR KBVY 301653Z 14011KT 10SM FEW055 26/13 A3011 RMK AO2 SLP190 T02610133
Pressure 30.09 in
Visibility 10.0 miles
Clouds Few 5500 ft
Heat Index 78 °F
Dew Point 56 °F
Humidity 52%
Rainfall 0.00 in
Snow Depth Not available.
6:07 AM 7:20 PM
Waning Crescent, 3% visible
METAR KBVY 301653Z 14011KT 10SM FEW055 26/13 A3011 RMK AO2 SLP190 T02610133

10-Day Weather Forecast

Almanac

Astronomy

Aug. 30, 2016 Rise Set
Actual Time
Civil Twilight
Nautical Twilight
Astronomical Twilight
Moon
Length of Visible Light
Length of Day
Tomorrow will be .
, % of the Moon is Illuminated

Today's Extremes

State Highs State Lows

Community

WunderPhotos

Upload Photos

1,935,848 photos uploaded!

WunderBlog® & News

Nearby

Air Quality

  Air Quality AQ Index Pollutant
Not available.

Snow Depth

Station Depth Elevation

Earthquake Activity

City Distance Mag. Time & Date
Minimum magnitude displayed is 2.5.

Coastal Water Temperatures

Place Temperature

Stations

Nearby Weather Stations

Station Location Temp. Windchill Dew Point Humidity Wind Precip. Elev Updated Type
                   

Watches & Warnings

There are currently no watches in effect.